sensor_id;sensor_type;location;lat;lon;timestamp;P1;durP1;ratioP1;P2;durP2;ratioP2
69363;SDS011;56526;55.406;86.130;2022-10-28T00:01:12;22.05;;;8.50;;
69363;SDS011;56526;55.406;86.130;2022-10-28T00:03:48;17.30;;;9.32;;
69363;SDS011;56526;55.406;86.130;2022-10-28T00:08:54;8.20;;;5.72;;
69363;SDS011;56526;55.406;86.130;2022-10-28T00:11:22;12.20;;;5.60;;
69363;SDS011;56526;55.406;86.130;2022-10-28T00:13:55;16.27;;;5.53;;
69363;SDS011;56526;55.406;86.130;2022-10-28T00:16:24;12.32;;;7.47;;
69363;SDS011;56526;55.406;86.130;2022-10-28T00:18:57;12.25;;;8.27;;
69363;SDS011;56526;55.406;86.130;2022-10-28T00:21:25;6.10;;;5.47;;
69363;SDS011;56526;55.406;86.130;2022-10-28T00:23:58;5.88;;;5.38;;
69363;SDS011;56526;55.406;86.130;2022-10-28T00:26:26;6.00;;;2.70;;
69363;SDS011;56526;55.406;86.130;2022-10-28T00:28:55;6.97;;;4.90;;
69363;SDS011;56526;55.406;86.130;2022-10-28T00:31:29;6.72;;;5.43;;
69363;SDS011;56526;55.406;86.130;2022-10-28T00:33:57;6.30;;;5.63;;
69363;SDS011;56526;55.406;86.130;2022-10-28T00:36:35;7.47;;;5.82;;
69363;SDS011;56526;55.406;86.130;2022-10-28T00:39:09;7.43;;;6.72;;
69363;SDS011;56526;55.406;86.130;2022-10-28T00:41:46;4.65;;;2.03;;
69363;SDS011;56526;55.406;86.130;2022-10-28T00:50:38;9.32;;;6.18;;
69363;SDS011;56526;55.406;86.130;2022-10-28T00:53:24;6.60;;;4.93;;
69363;SDS011;56526;55.406;86.130;2022-10-28T00:55:53;6.65;;;6.00;;
69363;SDS011;56526;55.406;86.130;2022-10-28T00:58:21;6.57;;;6.03;;
69363;SDS011;56526;55.406;86.130;2022-10-28T01:00:50;8.55;;;6.03;;
69363;SDS011;56526;55.406;86.130;2022-10-28T01:03:16;6.82;;;5.93;;
69363;SDS011;56526;55.406;86.130;2022-10-28T01:05:43;9.32;;;5.22;;
69363;SDS011;56526;55.406;86.130;2022-10-28T01:08:12;6.57;;;4.53;;
69363;SDS011;56526;55.406;86.130;2022-10-28T01:19:52;4.63;;;4.30;;
69363;SDS011;56526;55.406;86.130;2022-10-28T01:32:32;4.32;;;3.92;;
69363;SDS011;56526;55.406;86.130;2022-10-28T01:35:39;3.13;;;1.73;;
69363;SDS011;56526;55.406;86.130;2022-10-28T01:38:40;4.75;;;4.25;;
69363;SDS011;56526;55.406;86.130;2022-10-28T01:46:47;9.30;;;6.10;;
69363;SDS011;56526;55.406;86.130;2022-10-28T01:49:30;5.57;;;5.07;;
69363;SDS011;56526;55.406;86.130;2022-10-28T01:52:27;5.68;;;4.30;;
69363;SDS011;56526;55.406;86.130;2022-10-28T01:55:10;13.57;;;5.28;;
69363;SDS011;56526;55.406;86.130;2022-10-28T01:57:44;8.93;;;5.50;;
69363;SDS011;56526;55.406;86.130;2022-10-28T02:00:13;5.82;;;2.40;;
69363;SDS011;56526;55.406;86.130;2022-10-28T02:02:40;7.80;;;5.93;;
69363;SDS011;56526;55.406;86.130;2022-10-28T02:19:49;6.25;;;5.13;;
69363;SDS011;56526;55.406;86.130;2022-10-28T02:22:48;8.93;;;5.40;;
69363;SDS011;56526;55.406;86.130;2022-10-28T02:25:33;11.93;;;4.80;;
69363;SDS011;56526;55.406;86.130;2022-10-28T02:31:09;4.32;;;3.88;;
69363;SDS011;56526;55.406;86.130;2022-10-28T02:33:47;9.00;;;4.78;;
69363;SDS011;56526;55.406;86.130;2022-10-28T02:36:18;11.57;;;6.18;;
69363;SDS011;56526;55.406;86.130;2022-10-28T02:38:48;7.38;;;4.18;;
69363;SDS011;56526;55.406;86.130;2022-10-28T02:41:20;8.00;;;3.38;;
69363;SDS011;56526;55.406;86.130;2022-10-28T02:43:54;13.82;;;2.50;;
69363;SDS011;56526;55.406;86.130;2022-10-28T02:46:27;16.35;;;6.43;;
69363;SDS011;56526;55.406;86.130;2022-10-28T02:48:56;8.88;;;5.18;;
69363;SDS011;56526;55.406;86.130;2022-10-28T02:51:30;7.28;;;4.88;;
69363;SDS011;56526;55.406;86.130;2022-10-28T02:56:57;9.02;;;4.63;;
69363;SDS011;56526;55.406;86.130;2022-10-28T02:59:53;6.88;;;5.38;;
69363;SDS011;56526;55.406;86.130;2022-10-28T03:02:23;12.50;;;2.72;;
69363;SDS011;56526;55.406;86.130;2022-10-28T03:04:50;10.07;;;4.35;;
69363;SDS011;56526;55.406;86.130;2022-10-28T03:07:16;11.82;;;5.45;;
69363;SDS011;56526;55.406;86.130;2022-10-28T03:09:43;9.70;;;5.97;;
69363;SDS011;56526;55.406;86.130;2022-10-28T03:12:09;8.60;;;6.32;;
69363;SDS011;56526;55.406;86.130;2022-10-28T03:14:36;7.28;;;5.50;;
69363;SDS011;56526;55.406;86.130;2022-10-28T03:17:02;10.30;;;6.22;;
69363;SDS011;56526;55.406;86.130;2022-10-28T03:19:30;7.65;;;5.75;;
69363;SDS011;56526;55.406;86.130;2022-10-28T03:21:56;6.70;;;4.82;;
69363;SDS011;56526;55.406;86.130;2022-10-28T03:24:23;5.47;;;4.60;;
69363;SDS011;56526;55.406;86.130;2022-10-28T03:26:49;5.32;;;3.22;;
69363;SDS011;56526;55.406;86.130;2022-10-28T03:29:15;11.05;;;6.95;;
69363;SDS011;56526;55.406;86.130;2022-10-28T03:31:41;6.93;;;5.05;;
69363;SDS011;56526;55.406;86.130;2022-10-28T03:34:08;8.75;;;6.18;;
69363;SDS011;56526;55.406;86.130;2022-10-28T03:36:34;5.80;;;5.30;;
69363;SDS011;56526;55.406;86.130;2022-10-28T03:39:01;6.90;;;5.10;;
69363;SDS011;56526;55.406;86.130;2022-10-28T03:41:27;8.40;;;5.88;;
69363;SDS011;56526;55.406;86.130;2022-10-28T03:43:53;9.20;;;7.05;;
69363;SDS011;56526;55.406;86.130;2022-10-28T03:46:20;10.00;;;7.55;;
69363;SDS011;56526;55.406;86.130;2022-10-28T03:48:46;8.88;;;4.65;;
69363;SDS011;56526;55.406;86.130;2022-10-28T03:51:13;10.48;;;7.45;;
69363;SDS011;56526;55.406;86.130;2022-10-28T03:53:39;8.77;;;5.53;;
69363;SDS011;56526;55.406;86.130;2022-10-28T03:56:05;10.65;;;6.32;;
69363;SDS011;56526;55.406;86.130;2022-10-28T03:58:32;9.55;;;7.38;;
69363;SDS011;56526;55.406;86.130;2022-10-28T04:00:58;8.63;;;3.45;;
69363;SDS011;56526;55.406;86.130;2022-10-28T04:03:25;6.03;;;3.40;;
69363;SDS011;56526;55.406;86.130;2022-10-28T04:05:51;15.80;;;8.23;;
69363;SDS011;56526;55.406;86.130;2022-10-28T04:08:18;9.43;;;7.75;;
69363;SDS011;56526;55.406;86.130;2022-10-28T04:10:45;8.48;;;5.80;;
69363;SDS011;56526;55.406;86.130;2022-10-28T04:13:13;8.23;;;5.78;;
69363;SDS011;56526;55.406;86.130;2022-10-28T04:15:40;11.95;;;8.27;;
69363;SDS011;56526;55.406;86.130;2022-10-28T04:18:07;14.40;;;6.05;;
69363;SDS011;56526;55.406;86.130;2022-10-28T04:20:34;17.42;;;8.65;;
69363;SDS011;56526;55.406;86.130;2022-10-28T04:23:00;21.40;;;9.30;;
69363;SDS011;56526;55.406;86.130;2022-10-28T04:25:26;29.60;;;13.07;;
69363;SDS011;56526;55.406;86.130;2022-10-28T04:27:53;30.05;;;13.00;;
69363;SDS011;56526;55.406;86.130;2022-10-28T04:30:20;35.45;;;16.40;;
69363;SDS011;56526;55.406;86.130;2022-10-28T04:32:46;24.23;;;12.50;;
69363;SDS011;56526;55.406;86.130;2022-10-28T04:35:13;27.35;;;9.95;;
69363;SDS011;56526;55.406;86.130;2022-10-28T04:37:39;25.38;;;13.70;;
69363;SDS011;56526;55.406;86.130;2022-10-28T04:40:06;19.67;;;11.25;;
69363;SDS011;56526;55.406;86.130;2022-10-28T04:42:37;22.48;;;11.13;;
69363;SDS011;56526;55.406;86.130;2022-10-28T04:45:05;12.60;;;8.52;;
69363;SDS011;56526;55.406;86.130;2022-10-28T04:47:32;12.77;;;9.15;;
69363;SDS011;56526;55.406;86.130;2022-10-28T04:49:59;6.60;;;5.20;;
69363;SDS011;56526;55.406;86.130;2022-10-28T04:52:26;8.85;;;5.47;;
69363;SDS011;56526;55.406;86.130;2022-10-28T04:54:52;4.43;;;4.07;;
69363;SDS011;56526;55.406;86.130;2022-10-28T04:57:18;6.80;;;5.85;;
69363;SDS011;56526;55.406;86.130;2022-10-28T04:59:45;7.05;;;6.60;;
69363;SDS011;56526;55.406;86.130;2022-10-28T05:02:11;3.53;;;1.95;;
69363;SDS011;56526;55.406;86.130;2022-10-28T05:04:37;7.60;;;6.90;;
69363;SDS011;56526;55.406;86.130;2022-10-28T05:07:04;8.88;;;6.25;;
69363;SDS011;56526;55.406;86.130;2022-10-28T05:09:30;6.38;;;5.57;;
69363;SDS011;56526;55.406;86.130;2022-10-28T05:11:56;8.70;;;7.95;;
69363;SDS011;56526;55.406;86.130;2022-10-28T05:14:23;8.23;;;7.43;;
69363;SDS011;56526;55.406;86.130;2022-10-28T05:16:49;7.03;;;6.05;;
69363;SDS011;56526;55.406;86.130;2022-10-28T05:19:15;9.55;;;6.63;;
69363;SDS011;56526;55.406;86.130;2022-10-28T05:21:41;8.48;;;4.68;;
69363;SDS011;56526;55.406;86.130;2022-10-28T05:24:10;9.55;;;7.90;;
69363;SDS011;56526;55.406;86.130;2022-10-28T05:26:36;8.45;;;6.47;;
69363;SDS011;56526;55.406;86.130;2022-10-28T05:29:03;9.93;;;8.27;;
69363;SDS011;56526;55.406;86.130;2022-10-28T05:31:29;11.93;;;6.20;;
69363;SDS011;56526;55.406;86.130;2022-10-28T05:33:55;14.38;;;9.02;;
69363;SDS011;56526;55.406;86.130;2022-10-28T05:36:21;13.95;;;8.20;;
69363;SDS011;56526;55.406;86.130;2022-10-28T05:38:47;9.85;;;7.25;;
69363;SDS011;56526;55.406;86.130;2022-10-28T05:43:45;9.15;;;7.90;;
69363;SDS011;56526;55.406;86.130;2022-10-28T05:46:11;11.98;;;8.40;;
69363;SDS011;56526;55.406;86.130;2022-10-28T05:48:38;9.23;;;7.00;;
69363;SDS011;56526;55.406;86.130;2022-10-28T05:51:07;10.85;;;6.32;;
69363;SDS011;56526;55.406;86.130;2022-10-28T05:53:34;11.73;;;9.75;;
69363;SDS011;56526;55.406;86.130;2022-10-28T05:56:00;9.05;;;6.50;;
69363;SDS011;56526;55.406;86.130;2022-10-28T05:58:26;6.80;;;4.88;;
69363;SDS011;56526;55.406;86.130;2022-10-28T06:00:53;9.10;;;7.72;;
69363;SDS011;56526;55.406;86.130;2022-10-28T06:03:19;11.00;;;8.30;;
69363;SDS011;56526;55.406;86.130;2022-10-28T06:05:45;8.90;;;3.83;;
69363;SDS011;56526;55.406;86.130;2022-10-28T06:08:13;12.15;;;9.90;;
69363;SDS011;56526;55.406;86.130;2022-10-28T06:10:40;8.82;;;7.75;;
69363;SDS011;56526;55.406;86.130;2022-10-28T06:13:07;9.23;;;4.90;;
69363;SDS011;56526;55.406;86.130;2022-10-28T06:15:34;12.82;;;10.35;;
69363;SDS011;56526;55.406;86.130;2022-10-28T06:18:02;12.63;;;4.57;;
69363;SDS011;56526;55.406;86.130;2022-10-28T06:20:28;16.95;;;9.45;;
69363;SDS011;56526;55.406;86.130;2022-10-28T06:22:54;8.45;;;5.93;;
69363;SDS011;56526;55.406;86.130;2022-10-28T06:25:21;13.30;;;8.95;;
69363;SDS011;56526;55.406;86.130;2022-10-28T06:27:56;8.25;;;5.50;;
69363;SDS011;56526;55.406;86.130;2022-10-28T06:30:32;9.63;;;6.15;;
69363;SDS011;56526;55.406;86.130;2022-10-28T06:33:01;3.35;;;2.78;;
69363;SDS011;56526;55.406;86.130;2022-10-28T06:35:27;5.28;;;4.80;;
69363;SDS011;56526;55.406;86.130;2022-10-28T06:37:54;7.80;;;6.20;;
69363;SDS011;56526;55.406;86.130;2022-10-28T06:40:21;8.95;;;6.80;;
69363;SDS011;56526;55.406;86.130;2022-10-28T06:42:55;8.85;;;5.60;;
69363;SDS011;56526;55.406;86.130;2022-10-28T06:45:26;6.70;;;5.20;;
69363;SDS011;56526;55.406;86.130;2022-10-28T06:47:55;3.95;;;2.38;;
69363;SDS011;56526;55.406;86.130;2022-10-28T06:50:26;6.72;;;5.53;;
69363;SDS011;56526;55.406;86.130;2022-10-28T06:52:56;4.90;;;4.50;;
69363;SDS011;56526;55.406;86.130;2022-10-28T06:55:26;4.78;;;4.35;;
69363;SDS011;56526;55.406;86.130;2022-10-28T06:57:55;4.78;;;4.32;;
69363;SDS011;56526;55.406;86.130;2022-10-28T07:00:25;5.32;;;4.93;;
69363;SDS011;56526;55.406;86.130;2022-10-28T07:02:54;6.45;;;4.93;;
69363;SDS011;56526;55.406;86.130;2022-10-28T07:05:21;7.70;;;4.72;;
69363;SDS011;56526;55.406;86.130;2022-10-28T07:07:49;5.40;;;2.05;;
69363;SDS011;56526;55.406;86.130;2022-10-28T07:10:15;7.10;;;5.93;;
69363;SDS011;56526;55.406;86.130;2022-10-28T07:12:41;4.22;;;2.25;;
69363;SDS011;56526;55.406;86.130;2022-10-28T07:15:08;5.75;;;5.15;;
69363;SDS011;56526;55.406;86.130;2022-10-28T07:17:39;4.32;;;3.92;;
69363;SDS011;56526;55.406;86.130;2022-10-28T07:20:05;3.75;;;3.55;;
69363;SDS011;56526;55.406;86.130;2022-10-28T07:22:32;5.00;;;4.60;;
69363;SDS011;56526;55.406;86.130;2022-10-28T07:24:59;9.10;;;8.40;;
69363;SDS011;56526;55.406;86.130;2022-10-28T07:27:25;5.18;;;4.65;;
69363;SDS011;56526;55.406;86.130;2022-10-28T07:29:51;6.50;;;2.65;;
69363;SDS011;56526;55.406;86.130;2022-10-28T07:32:17;7.47;;;6.97;;
69363;SDS011;56526;55.406;86.130;2022-10-28T07:34:44;4.50;;;4.10;;
69363;SDS011;56526;55.406;86.130;2022-10-28T07:37:10;6.15;;;5.65;;
69363;SDS011;56526;55.406;86.130;2022-10-28T07:39:38;5.35;;;4.97;;
69363;SDS011;56526;55.406;86.130;2022-10-28T07:42:04;5.97;;;5.38;;
69363;SDS011;56526;55.406;86.130;2022-10-28T07:44:31;6.88;;;6.28;;
69363;SDS011;56526;55.406;86.130;2022-10-28T07:46:57;5.20;;;4.80;;
69363;SDS011;56526;55.406;86.130;2022-10-28T07:49:23;5.82;;;5.35;;
69363;SDS011;56526;55.406;86.130;2022-10-28T07:51:50;5.85;;;5.35;;
69363;SDS011;56526;55.406;86.130;2022-10-28T07:54:18;6.22;;;5.18;;
69363;SDS011;56526;55.406;86.130;2022-10-28T07:56:44;5.25;;;4.75;;
69363;SDS011;56526;55.406;86.130;2022-10-28T07:59:10;9.35;;;5.82;;
69363;SDS011;56526;55.406;86.130;2022-10-28T08:01:36;14.43;;;6.97;;
69363;SDS011;56526;55.406;86.130;2022-10-28T08:04:04;8.65;;;5.88;;
69363;SDS011;56526;55.406;86.130;2022-10-28T08:06:30;12.55;;;6.10;;
69363;SDS011;56526;55.406;86.130;2022-10-28T08:08:59;7.95;;;6.15;;
69363;SDS011;56526;55.406;86.130;2022-10-28T08:11:25;6.90;;;4.75;;
69363;SDS011;56526;55.406;86.130;2022-10-28T08:13:51;4.68;;;2.53;;
69363;SDS011;56526;55.406;86.130;2022-10-28T08:16:18;5.57;;;5.13;;
69363;SDS011;56526;55.406;86.130;2022-10-28T08:18:44;7.25;;;6.05;;
69363;SDS011;56526;55.406;86.130;2022-10-28T08:21:11;9.68;;;6.43;;
69363;SDS011;56526;55.406;86.130;2022-10-28T08:23:40;6.47;;;5.88;;
69363;SDS011;56526;55.406;86.130;2022-10-28T08:26:06;7.45;;;4.18;;
69363;SDS011;56526;55.406;86.130;2022-10-28T08:28:33;9.32;;;8.43;;
69363;SDS011;56526;55.406;86.130;2022-10-28T08:31:01;10.52;;;7.10;;
69363;SDS011;56526;55.406;86.130;2022-10-28T08:33:32;7.10;;;3.60;;
69363;SDS011;56526;55.406;86.130;2022-10-28T08:35:58;5.47;;;5.07;;
69363;SDS011;56526;55.406;86.130;2022-10-28T08:38:24;7.32;;;6.40;;
69363;SDS011;56526;55.406;86.130;2022-10-28T08:43:51;6.80;;;6.28;;
69363;SDS011;56526;55.406;86.130;2022-10-28T08:49:36;7.43;;;3.50;;
69363;SDS011;56526;55.406;86.130;2022-10-28T08:55:00;10.23;;;9.23;;
69363;SDS011;56526;55.406;86.130;2022-10-28T08:57:42;7.57;;;6.82;;
69363;SDS011;56526;55.406;86.130;2022-10-28T09:00:21;8.13;;;7.47;;
69363;SDS011;56526;55.406;86.130;2022-10-28T09:02:58;8.73;;;5.72;;
69363;SDS011;56526;55.406;86.130;2022-10-28T09:05:31;11.73;;;7.07;;
69363;SDS011;56526;55.406;86.130;2022-10-28T09:07:57;9.13;;;7.07;;
69363;SDS011;56526;55.406;86.130;2022-10-28T09:10:36;10.13;;;7.80;;
69363;SDS011;56526;55.406;86.130;2022-10-28T09:13:13;9.23;;;8.20;;
69363;SDS011;56526;55.406;86.130;2022-10-28T09:20:11;7.40;;;3.78;;
69363;SDS011;56526;55.406;86.130;2022-10-28T09:25:46;10.93;;;7.93;;
69363;SDS011;56526;55.406;86.130;2022-10-28T09:28:28;10.75;;;4.40;;
69363;SDS011;56526;55.406;86.130;2022-10-28T09:31:39;8.93;;;7.95;;
69363;SDS011;56526;55.406;86.130;2022-10-28T09:37:03;9.35;;;7.60;;
69363;SDS011;56526;55.406;86.130;2022-10-28T09:39:41;11.43;;;4.97;;
69363;SDS011;56526;55.406;86.130;2022-10-28T09:42:19;16.38;;;9.23;;
69363;SDS011;56526;55.406;86.130;2022-10-28T09:44:56;11.15;;;9.10;;
69363;SDS011;56526;55.406;86.130;2022-10-28T09:47:31;5.90;;;3.72;;
69363;SDS011;56526;55.406;86.130;2022-10-28T09:50:05;15.27;;;3.85;;
69363;SDS011;56526;55.406;86.130;2022-10-28T09:52:52;12.60;;;7.47;;
69363;SDS011;56526;55.406;86.130;2022-10-28T09:55:40;13.77;;;9.35;;
69363;SDS011;56526;55.406;86.130;2022-10-28T09:58:07;10.57;;;8.02;;
69363;SDS011;56526;55.406;86.130;2022-10-28T10:00:37;15.73;;;8.23;;
69363;SDS011;56526;55.406;86.130;2022-10-28T10:03:04;9.80;;;8.80;;
69363;SDS011;56526;55.406;86.130;2022-10-28T10:05:32;8.90;;;8.02;;
69363;SDS011;56526;55.406;86.130;2022-10-28T10:08:05;6.72;;;3.85;;
69363;SDS011;56526;55.406;86.130;2022-10-28T10:13:14;10.63;;;8.43;;
69363;SDS011;56526;55.406;86.130;2022-10-28T10:15:56;12.65;;;9.27;;
69363;SDS011;56526;55.406;86.130;2022-10-28T10:18:30;8.23;;;3.92;;
69363;SDS011;56526;55.406;86.130;2022-10-28T10:20:57;10.38;;;8.38;;
69363;SDS011;56526;55.406;86.130;2022-10-28T10:28:32;12.10;;;8.52;;
69363;SDS011;56526;55.406;86.130;2022-10-28T10:31:02;12.10;;;9.15;;
69363;SDS011;56526;55.406;86.130;2022-10-28T10:33:34;9.80;;;8.88;;
69363;SDS011;56526;55.406;86.130;2022-10-28T10:38:35;6.35;;;4.70;;
69363;SDS011;56526;55.406;86.130;2022-10-28T10:41:03;10.32;;;8.32;;
69363;SDS011;56526;55.406;86.130;2022-10-28T10:43:31;10.18;;;6.80;;
69363;SDS011;56526;55.406;86.130;2022-10-28T10:46:01;11.48;;;7.50;;
69363;SDS011;56526;55.406;86.130;2022-10-28T10:48:38;13.98;;;8.15;;
69363;SDS011;56526;55.406;86.130;2022-10-28T10:51:05;13.00;;;8.38;;
69363;SDS011;56526;55.406;86.130;2022-10-28T10:53:40;12.93;;;7.32;;
69363;SDS011;56526;55.406;86.130;2022-10-28T10:56:12;13.55;;;8.70;;
69363;SDS011;56526;55.406;86.130;2022-10-28T10:58:50;8.27;;;7.00;;
69363;SDS011;56526;55.406;86.130;2022-10-28T11:01:22;11.65;;;6.28;;
69363;SDS011;56526;55.406;86.130;2022-10-28T11:04:00;11.18;;;7.00;;
69363;SDS011;56526;55.406;86.130;2022-10-28T11:06:32;8.35;;;4.95;;
69363;SDS011;56526;55.406;86.130;2022-10-28T11:09:36;9.23;;;7.50;;
69363;SDS011;56526;55.406;86.130;2022-10-28T11:14:52;11.57;;;4.68;;
69363;SDS011;56526;55.406;86.130;2022-10-28T11:17:23;17.98;;;11.27;;
69363;SDS011;56526;55.406;86.130;2022-10-28T11:19:58;20.92;;;10.48;;
69363;SDS011;56526;55.406;86.130;2022-10-28T11:22:42;12.43;;;9.32;;
69363;SDS011;56526;55.406;86.130;2022-10-28T11:34:16;10.15;;;7.30;;
69363;SDS011;56526;55.406;86.130;2022-10-28T11:39:55;14.85;;;9.63;;
69363;SDS011;56526;55.406;86.130;2022-10-28T11:43:26;16.75;;;9.32;;
69363;SDS011;56526;55.406;86.130;2022-10-28T11:57:41;11.80;;;9.32;;
69363;SDS011;56526;55.406;86.130;2022-10-28T12:07:16;13.30;;;9.10;;
69363;SDS011;56526;55.406;86.130;2022-10-28T12:18:56;9.98;;;8.32;;
69363;SDS011;56526;55.406;86.130;2022-10-28T12:21:30;15.45;;;10.63;;
69363;SDS011;56526;55.406;86.130;2022-10-28T12:24:02;13.73;;;9.90;;
69363;SDS011;56526;55.406;86.130;2022-10-28T12:26:53;12.25;;;9.57;;
69363;SDS011;56526;55.406;86.130;2022-10-28T12:29:32;14.50;;;10.40;;
69363;SDS011;56526;55.406;86.130;2022-10-28T12:34:53;16.27;;;8.43;;
69363;SDS011;56526;55.406;86.130;2022-10-28T12:37:50;14.30;;;6.32;;
69363;SDS011;56526;55.406;86.130;2022-10-28T12:41:06;17.48;;;12.15;;
69363;SDS011;56526;55.406;86.130;2022-10-28T12:46:18;9.90;;;8.98;;
69363;SDS011;56526;55.406;86.130;2022-10-28T12:49:15;12.93;;;6.75;;
69363;SDS011;56526;55.406;86.130;2022-10-28T12:52:14;10.57;;;9.57;;
69363;SDS011;56526;55.406;86.130;2022-10-28T12:57:39;22.05;;;10.60;;
69363;SDS011;56526;55.406;86.130;2022-10-28T13:00:15;8.15;;;7.25;;
69363;SDS011;56526;55.406;86.130;2022-10-28T13:03:00;12.15;;;9.07;;
69363;SDS011;56526;55.406;86.130;2022-10-28T13:05:33;12.90;;;6.75;;
69363;SDS011;56526;55.406;86.130;2022-10-28T13:12:04;15.52;;;11.77;;
69363;SDS011;56526;55.406;86.130;2022-10-28T13:17:30;16.40;;;12.02;;
69363;SDS011;56526;55.406;86.130;2022-10-28T13:26:33;12.90;;;8.80;;
69363;SDS011;56526;55.406;86.130;2022-10-28T13:29:03;18.55;;;10.65;;
69363;SDS011;56526;55.406;86.130;2022-10-28T13:31:38;17.60;;;5.85;;
69363;SDS011;56526;55.406;86.130;2022-10-28T13:34:08;8.90;;;5.22;;
69363;SDS011;56526;55.406;86.130;2022-10-28T13:36:41;10.63;;;8.68;;
69363;SDS011;56526;55.406;86.130;2022-10-28T13:39:41;9.57;;;8.20;;
69363;SDS011;56526;55.406;86.130;2022-10-28T13:44:53;9.57;;;8.48;;
69363;SDS011;56526;55.406;86.130;2022-10-28T13:47:22;11.60;;;9.68;;
69363;SDS011;56526;55.406;86.130;2022-10-28T13:52:36;11.82;;;8.30;;
69363;SDS011;56526;55.406;86.130;2022-10-28T14:07:23;10.45;;;8.52;;
69363;SDS011;56526;55.406;86.130;2022-10-28T14:09:57;8.55;;;7.60;;
69363;SDS011;56526;55.406;86.130;2022-10-28T14:15:29;16.70;;;13.52;;
69363;SDS011;56526;55.406;86.130;2022-10-28T14:18:04;18.98;;;11.13;;
69363;SDS011;56526;55.406;86.130;2022-10-28T14:26:01;10.43;;;9.38;;
69363;SDS011;56526;55.406;86.130;2022-10-28T14:33:38;11.38;;;9.25;;
69363;SDS011;56526;55.406;86.130;2022-10-28T14:50:54;13.25;;;9.63;;
69363;SDS011;56526;55.406;86.130;2022-10-28T14:53:27;14.98;;;10.57;;
69363;SDS011;56526;55.406;86.130;2022-10-28T14:56:00;12.15;;;7.18;;
69363;SDS011;56526;55.406;86.130;2022-10-28T14:58:45;9.52;;;8.50;;
69363;SDS011;56526;55.406;86.130;2022-10-28T15:01:18;10.77;;;9.68;;
69363;SDS011;56526;55.406;86.130;2022-10-28T15:03:59;14.82;;;9.85;;
69363;SDS011;56526;55.406;86.130;2022-10-28T15:06:39;8.13;;;6.75;;
69363;SDS011;56526;55.406;86.130;2022-10-28T15:09:40;9.45;;;7.13;;
69363;SDS011;56526;55.406;86.130;2022-10-28T15:12:00;8.98;;;8.13;;
69363;SDS011;56526;55.406;86.130;2022-10-28T15:14:32;8.02;;;6.10;;
69363;SDS011;56526;55.406;86.130;2022-10-28T15:19:42;10.73;;;9.10;;
69363;SDS011;56526;55.406;86.130;2022-10-28T15:22:13;14.30;;;9.93;;
69363;SDS011;56526;55.406;86.130;2022-10-28T15:24:56;15.52;;;8.82;;
69363;SDS011;56526;55.406;86.130;2022-10-28T15:27:32;13.43;;;9.20;;
69363;SDS011;56526;55.406;86.130;2022-10-28T15:30:01;9.82;;;7.68;;
69363;SDS011;56526;55.406;86.130;2022-10-28T15:32:32;10.25;;;3.78;;
69363;SDS011;56526;55.406;86.130;2022-10-28T15:35:45;12.77;;;8.05;;
69363;SDS011;56526;55.406;86.130;2022-10-28T15:40:45;12.45;;;8.80;;
69363;SDS011;56526;55.406;86.130;2022-10-28T15:43:45;11.02;;;8.55;;
69363;SDS011;56526;55.406;86.130;2022-10-28T15:46:13;13.80;;;9.35;;
69363;SDS011;56526;55.406;86.130;2022-10-28T15:48:41;15.45;;;6.00;;
69363;SDS011;56526;55.406;86.130;2022-10-28T15:51:14;7.18;;;4.03;;
69363;SDS011;56526;55.406;86.130;2022-10-28T15:53:43;9.90;;;8.82;;
69363;SDS011;56526;55.406;86.130;2022-10-28T15:58:39;8.30;;;4.70;;
69363;SDS011;56526;55.406;86.130;2022-10-28T16:03:59;8.70;;;7.88;;
69363;SDS011;56526;55.406;86.130;2022-10-28T16:06:26;8.70;;;4.97;;
69363;SDS011;56526;55.406;86.130;2022-10-28T16:11:34;13.05;;;8.52;;
69363;SDS011;56526;55.406;86.130;2022-10-28T16:14:13;11.02;;;4.72;;
69363;SDS011;56526;55.406;86.130;2022-10-28T16:16:54;14.43;;;7.82;;
69363;SDS011;56526;55.406;86.130;2022-10-28T16:19:26;17.70;;;10.35;;
69363;SDS011;56526;55.406;86.130;2022-10-28T16:21:57;11.48;;;9.00;;
69363;SDS011;56526;55.406;86.130;2022-10-28T16:24:23;9.07;;;7.60;;
69363;SDS011;56526;55.406;86.130;2022-10-28T16:26:49;10.40;;;4.63;;
69363;SDS011;56526;55.406;86.130;2022-10-28T16:29:15;13.68;;;9.90;;
69363;SDS011;56526;55.406;86.130;2022-10-28T16:31:42;13.07;;;10.00;;
69363;SDS011;56526;55.406;86.130;2022-10-28T16:34:12;13.77;;;9.02;;
69363;SDS011;56526;55.406;86.130;2022-10-28T16:36:39;15.43;;;9.73;;
69363;SDS011;56526;55.406;86.130;2022-10-28T16:39:10;15.60;;;9.45;;
69363;SDS011;56526;55.406;86.130;2022-10-28T16:41:36;12.77;;;5.60;;
69363;SDS011;56526;55.406;86.130;2022-10-28T16:44:03;18.38;;;5.50;;
69363;SDS011;56526;55.406;86.130;2022-10-28T16:46:29;8.88;;;8.07;;
69363;SDS011;56526;55.406;86.130;2022-10-28T16:48:55;7.38;;;4.97;;
69363;SDS011;56526;55.406;86.130;2022-10-28T16:51:21;11.32;;;10.10;;
69363;SDS011;56526;55.406;86.130;2022-10-28T16:53:47;13.90;;;10.68;;
69363;SDS011;56526;55.406;86.130;2022-10-28T16:56:14;10.25;;;9.55;;
69363;SDS011;56526;55.406;86.130;2022-10-28T16:58:41;9.73;;;8.90;;
69363;SDS011;56526;55.406;86.130;2022-10-28T17:01:08;17.85;;;7.40;;
69363;SDS011;56526;55.406;86.130;2022-10-28T17:03:35;12.35;;;7.80;;
69363;SDS011;56526;55.406;86.130;2022-10-28T17:06:01;14.57;;;8.75;;
69363;SDS011;56526;55.406;86.130;2022-10-28T17:08:27;8.63;;;7.82;;
69363;SDS011;56526;55.406;86.130;2022-10-28T17:10:53;18.38;;;5.55;;
69363;SDS011;56526;55.406;86.130;2022-10-28T17:13:19;9.98;;;7.50;;
69363;SDS011;56526;55.406;86.130;2022-10-28T17:15:50;17.80;;;9.80;;
69363;SDS011;56526;55.406;86.130;2022-10-28T17:18:17;9.88;;;6.63;;
69363;SDS011;56526;55.406;86.130;2022-10-28T17:20:43;11.48;;;8.13;;
69363;SDS011;56526;55.406;86.130;2022-10-28T17:23:10;7.15;;;3.75;;
69363;SDS011;56526;55.406;86.130;2022-10-28T17:25:36;8.55;;;4.60;;
69363;SDS011;56526;55.406;86.130;2022-10-28T17:28:03;7.18;;;6.57;;
69363;SDS011;56526;55.406;86.130;2022-10-28T17:30:29;9.65;;;7.57;;
69363;SDS011;56526;55.406;86.130;2022-10-28T17:32:55;8.80;;;6.38;;
69363;SDS011;56526;55.406;86.130;2022-10-28T17:35:22;8.98;;;7.78;;
69363;SDS011;56526;55.406;86.130;2022-10-28T17:37:48;10.68;;;8.35;;
69363;SDS011;56526;55.406;86.130;2022-10-28T17:40:15;13.60;;;7.50;;
69363;SDS011;56526;55.406;86.130;2022-10-28T17:42:41;7.88;;;7.28;;
69363;SDS011;56526;55.406;86.130;2022-10-28T17:45:08;7.38;;;6.97;;
69363;SDS011;56526;55.406;86.130;2022-10-28T17:47:35;9.35;;;7.28;;
69363;SDS011;56526;55.406;86.130;2022-10-28T17:50:01;9.80;;;8.77;;
69363;SDS011;56526;55.406;86.130;2022-10-28T17:52:28;3.55;;;3.13;;
69363;SDS011;56526;55.406;86.130;2022-10-28T17:54:54;9.60;;;8.55;;
69363;SDS011;56526;55.406;86.130;2022-10-28T17:57:21;7.93;;;7.22;;
69363;SDS011;56526;55.406;86.130;2022-10-28T17:59:47;7.80;;;6.40;;
69363;SDS011;56526;55.406;86.130;2022-10-28T18:02:19;6.30;;;2.80;;
69363;SDS011;56526;55.406;86.130;2022-10-28T18:04:46;6.05;;;5.43;;
69363;SDS011;56526;55.406;86.130;2022-10-28T18:07:12;10.23;;;9.52;;
69363;SDS011;56526;55.406;86.130;2022-10-28T18:09:38;6.43;;;3.97;;
69363;SDS011;56526;55.406;86.130;2022-10-28T18:12:04;7.70;;;6.43;;
69363;SDS011;56526;55.406;86.130;2022-10-28T18:14:31;6.90;;;3.22;;
69363;SDS011;56526;55.406;86.130;2022-10-28T18:16:57;4.00;;;3.17;;
69363;SDS011;56526;55.406;86.130;2022-10-28T18:19:24;7.50;;;6.97;;
69363;SDS011;56526;55.406;86.130;2022-10-28T18:21:50;8.70;;;7.80;;